sensor_id;sensor_type;location;lat;lon;timestamp;P1;durP1;ratioP1;P2;durP2;ratioP2
34060;SDS011;20336;-33.424;-70.638;2023-02-01T00:00:26;7.30;;;1.92;;
34060;SDS011;20336;-33.424;-70.638;2023-02-01T00:02:53;9.13;;;2.15;;
34060;SDS011;20336;-33.424;-70.638;2023-02-01T00:05:20;7.95;;;1.75;;
34060;SDS011;20336;-33.424;-70.638;2023-02-01T00:07:47;6.93;;;2.08;;
34060;SDS011;20336;-33.424;-70.638;2023-02-01T00:10:14;6.90;;;2.10;;
34060;SDS011;20336;-33.424;-70.638;2023-02-01T00:12:41;9.27;;;2.08;;
34060;SDS011;20336;-33.424;-70.638;2023-02-01T00:15:08;11.75;;;2.42;;
34060;SDS011;20336;-33.424;-70.638;2023-02-01T00:17:35;6.15;;;2.30;;
34060;SDS011;20336;-33.424;-70.638;2023-02-01T00:20:02;8.32;;;2.33;;
34060;SDS011;20336;-33.424;-70.638;2023-02-01T00:22:29;7.75;;;2.28;;
34060;SDS011;20336;-33.424;-70.638;2023-02-01T00:24:56;9.38;;;2.00;;
34060;SDS011;20336;-33.424;-70.638;2023-02-01T00:27:22;6.07;;;2.30;;
34060;SDS011;20336;-33.424;-70.638;2023-02-01T00:29:49;10.52;;;2.20;;
34060;SDS011;20336;-33.424;-70.638;2023-02-01T00:32:16;5.25;;;2.22;;
34060;SDS011;20336;-33.424;-70.638;2023-02-01T00:34:43;10.98;;;2.20;;
34060;SDS011;20336;-33.424;-70.638;2023-02-01T00:37:10;7.53;;;2.30;;
34060;SDS011;20336;-33.424;-70.638;2023-02-01T00:39:37;8.60;;;2.53;;
34060;SDS011;20336;-33.424;-70.638;2023-02-01T00:42:03;8.77;;;2.30;;
34060;SDS011;20336;-33.424;-70.638;2023-02-01T00:44:30;9.13;;;2.60;;
34060;SDS011;20336;-33.424;-70.638;2023-02-01T00:46:59;6.70;;;2.10;;
34060;SDS011;20336;-33.424;-70.638;2023-02-01T00:49:27;7.22;;;2.30;;
34060;SDS011;20336;-33.424;-70.638;2023-02-01T00:51:54;9.90;;;2.35;;
34060;SDS011;20336;-33.424;-70.638;2023-02-01T00:54:21;7.55;;;2.20;;
34060;SDS011;20336;-33.424;-70.638;2023-02-01T00:56:48;6.10;;;2.20;;
34060;SDS011;20336;-33.424;-70.638;2023-02-01T00:59:15;8.77;;;2.00;;
34060;SDS011;20336;-33.424;-70.638;2023-02-01T01:01:42;8.63;;;2.83;;
34060;SDS011;20336;-33.424;-70.638;2023-02-01T01:04:09;9.25;;;2.33;;
34060;SDS011;20336;-33.424;-70.638;2023-02-01T01:06:36;12.10;;;2.72;;
34060;SDS011;20336;-33.424;-70.638;2023-02-01T01:09:04;15.73;;;2.88;;
34060;SDS011;20336;-33.424;-70.638;2023-02-01T01:11:33;7.47;;;2.20;;
34060;SDS011;20336;-33.424;-70.638;2023-02-01T01:14:02;12.57;;;2.40;;
34060;SDS011;20336;-33.424;-70.638;2023-02-01T01:16:30;8.27;;;2.70;;
34060;SDS011;20336;-33.424;-70.638;2023-02-01T01:19:00;10.05;;;2.60;;
34060;SDS011;20336;-33.424;-70.638;2023-02-01T01:21:27;9.93;;;2.30;;
34060;SDS011;20336;-33.424;-70.638;2023-02-01T01:23:58;10.30;;;2.35;;
34060;SDS011;20336;-33.424;-70.638;2023-02-01T01:26:27;11.50;;;2.90;;
34060;SDS011;20336;-33.424;-70.638;2023-02-01T01:28:56;5.70;;;2.10;;
34060;SDS011;20336;-33.424;-70.638;2023-02-01T01:31:23;9.18;;;2.13;;
34060;SDS011;20336;-33.424;-70.638;2023-02-01T01:33:52;13.43;;;1.95;;
34060;SDS011;20336;-33.424;-70.638;2023-02-01T01:36:22;5.75;;;2.10;;
34060;SDS011;20336;-33.424;-70.638;2023-02-01T01:38:49;5.32;;;2.13;;
34060;SDS011;20336;-33.424;-70.638;2023-02-01T01:41:18;8.57;;;2.22;;
34060;SDS011;20336;-33.424;-70.638;2023-02-01T01:43:50;7.82;;;1.80;;
34060;SDS011;20336;-33.424;-70.638;2023-02-01T01:46:26;7.78;;;1.90;;
34060;SDS011;20336;-33.424;-70.638;2023-02-01T01:49:04;5.65;;;2.10;;
34060;SDS011;20336;-33.424;-70.638;2023-02-01T01:51:32;6.38;;;2.08;;
34060;SDS011;20336;-33.424;-70.638;2023-02-01T01:54:06;7.72;;;2.00;;
34060;SDS011;20336;-33.424;-70.638;2023-02-01T01:56:42;9.88;;;2.40;;
34060;SDS011;20336;-33.424;-70.638;2023-02-01T01:59:14;13.82;;;2.63;;
34060;SDS011;20336;-33.424;-70.638;2023-02-01T02:01:41;11.27;;;2.42;;
34060;SDS011;20336;-33.424;-70.638;2023-02-01T02:04:09;5.18;;;1.90;;
34060;SDS011;20336;-33.424;-70.638;2023-02-01T02:06:43;4.60;;;1.58;;
34060;SDS011;20336;-33.424;-70.638;2023-02-01T02:09:15;9.95;;;2.15;;
34060;SDS011;20336;-33.424;-70.638;2023-02-01T02:11:42;8.23;;;2.00;;
34060;SDS011;20336;-33.424;-70.638;2023-02-01T02:14:10;6.78;;;2.30;;
34060;SDS011;20336;-33.424;-70.638;2023-02-01T02:27:44;2.95;;;1.58;;
34060;SDS011;20336;-33.424;-70.638;2023-02-01T02:36:00;5.43;;;1.90;;
34060;SDS011;20336;-33.424;-70.638;2023-02-01T02:39:11;6.88;;;2.20;;
34060;SDS011;20336;-33.424;-70.638;2023-02-01T02:41:40;6.93;;;2.08;;
34060;SDS011;20336;-33.424;-70.638;2023-02-01T02:47:44;9.85;;;2.13;;
34060;SDS011;20336;-33.424;-70.638;2023-02-01T02:53:23;4.85;;;1.80;;
34060;SDS011;20336;-33.424;-70.638;2023-02-01T02:56:16;6.57;;;2.33;;
34060;SDS011;20336;-33.424;-70.638;2023-02-01T02:59:04;6.38;;;2.28;;
34060;SDS011;20336;-33.424;-70.638;2023-02-01T03:01:53;6.97;;;1.98;;
34060;SDS011;20336;-33.424;-70.638;2023-02-01T03:04:38;7.95;;;2.35;;
34060;SDS011;20336;-33.424;-70.638;2023-02-01T03:07:13;9.95;;;2.20;;
34060;SDS011;20336;-33.424;-70.638;2023-02-01T03:10:03;9.10;;;2.45;;
34060;SDS011;20336;-33.424;-70.638;2023-02-01T03:12:34;6.22;;;1.80;;
34060;SDS011;20336;-33.424;-70.638;2023-02-01T03:15:38;6.95;;;1.95;;
34060;SDS011;20336;-33.424;-70.638;2023-02-01T03:21:14;7.53;;;2.22;;
34060;SDS011;20336;-33.424;-70.638;2023-02-01T03:23:45;8.48;;;2.30;;
34060;SDS011;20336;-33.424;-70.638;2023-02-01T03:26:14;9.38;;;2.47;;
34060;SDS011;20336;-33.424;-70.638;2023-02-01T03:28:45;7.93;;;2.10;;
34060;SDS011;20336;-33.424;-70.638;2023-02-01T03:31:21;6.20;;;1.90;;
34060;SDS011;20336;-33.424;-70.638;2023-02-01T03:33:48;7.38;;;2.20;;
34060;SDS011;20336;-33.424;-70.638;2023-02-01T03:39:17;5.15;;;2.17;;
34060;SDS011;20336;-33.424;-70.638;2023-02-01T03:44:16;10.13;;;2.58;;
34060;SDS011;20336;-33.424;-70.638;2023-02-01T03:46:59;6.85;;;2.35;;
34060;SDS011;20336;-33.424;-70.638;2023-02-01T03:49:35;4.25;;;1.90;;
34060;SDS011;20336;-33.424;-70.638;2023-02-01T03:52:10;7.50;;;2.40;;
34060;SDS011;20336;-33.424;-70.638;2023-02-01T03:54:43;9.05;;;2.63;;
34060;SDS011;20336;-33.424;-70.638;2023-02-01T03:57:16;11.45;;;2.80;;
34060;SDS011;20336;-33.424;-70.638;2023-02-01T03:59:52;7.93;;;2.42;;
34060;SDS011;20336;-33.424;-70.638;2023-02-01T04:02:19;5.25;;;2.53;;
34060;SDS011;20336;-33.424;-70.638;2023-02-01T04:04:46;6.22;;;2.30;;
34060;SDS011;20336;-33.424;-70.638;2023-02-01T04:07:12;9.45;;;2.50;;
34060;SDS011;20336;-33.424;-70.638;2023-02-01T04:09:39;5.32;;;2.60;;
34060;SDS011;20336;-33.424;-70.638;2023-02-01T04:12:06;9.18;;;2.58;;
34060;SDS011;20336;-33.424;-70.638;2023-02-01T04:14:33;8.98;;;2.58;;
34060;SDS011;20336;-33.424;-70.638;2023-02-01T04:17:00;9.18;;;2.55;;
34060;SDS011;20336;-33.424;-70.638;2023-02-01T04:19:26;8.35;;;2.80;;
34060;SDS011;20336;-33.424;-70.638;2023-02-01T04:21:53;7.72;;;2.28;;
34060;SDS011;20336;-33.424;-70.638;2023-02-01T04:24:20;9.40;;;2.40;;
34060;SDS011;20336;-33.424;-70.638;2023-02-01T04:26:47;11.15;;;2.72;;
34060;SDS011;20336;-33.424;-70.638;2023-02-01T04:29:14;5.82;;;2.28;;
34060;SDS011;20336;-33.424;-70.638;2023-02-01T04:31:41;8.02;;;3.17;;
34060;SDS011;20336;-33.424;-70.638;2023-02-01T04:34:07;6.25;;;2.83;;
34060;SDS011;20336;-33.424;-70.638;2023-02-01T04:36:34;7.28;;;2.10;;
34060;SDS011;20336;-33.424;-70.638;2023-02-01T04:39:01;8.32;;;2.70;;
34060;SDS011;20336;-33.424;-70.638;2023-02-01T04:41:28;8.35;;;2.22;;
34060;SDS011;20336;-33.424;-70.638;2023-02-01T04:43:55;8.23;;;2.42;;
34060;SDS011;20336;-33.424;-70.638;2023-02-01T04:46:22;7.45;;;2.63;;
34060;SDS011;20336;-33.424;-70.638;2023-02-01T04:48:49;8.32;;;2.20;;
34060;SDS011;20336;-33.424;-70.638;2023-02-01T04:51:16;7.72;;;2.20;;
34060;SDS011;20336;-33.424;-70.638;2023-02-01T04:53:43;9.00;;;2.60;;
34060;SDS011;20336;-33.424;-70.638;2023-02-01T04:56:10;8.10;;;2.22;;
34060;SDS011;20336;-33.424;-70.638;2023-02-01T04:58:37;6.10;;;2.00;;
34060;SDS011;20336;-33.424;-70.638;2023-02-01T05:01:05;7.10;;;2.47;;
34060;SDS011;20336;-33.424;-70.638;2023-02-01T05:03:33;6.78;;;2.08;;
34060;SDS011;20336;-33.424;-70.638;2023-02-01T05:06:00;6.63;;;2.40;;
34060;SDS011;20336;-33.424;-70.638;2023-02-01T05:08:29;7.55;;;1.95;;
34060;SDS011;20336;-33.424;-70.638;2023-02-01T05:10:56;8.70;;;2.53;;
34060;SDS011;20336;-33.424;-70.638;2023-02-01T05:13:24;5.15;;;1.90;;
34060;SDS011;20336;-33.424;-70.638;2023-02-01T05:16:09;4.78;;;2.30;;
34060;SDS011;20336;-33.424;-70.638;2023-02-01T05:18:36;6.85;;;2.00;;
34060;SDS011;20336;-33.424;-70.638;2023-02-01T05:21:03;7.95;;;2.40;;
34060;SDS011;20336;-33.424;-70.638;2023-02-01T05:23:30;6.50;;;2.20;;
34060;SDS011;20336;-33.424;-70.638;2023-02-01T05:26:00;7.25;;;2.15;;
34060;SDS011;20336;-33.424;-70.638;2023-02-01T05:28:28;8.52;;;2.25;;
34060;SDS011;20336;-33.424;-70.638;2023-02-01T05:30:55;6.88;;;2.30;;
34060;SDS011;20336;-33.424;-70.638;2023-02-01T05:33:22;10.00;;;1.90;;
34060;SDS011;20336;-33.424;-70.638;2023-02-01T05:35:49;8.90;;;1.98;;
34060;SDS011;20336;-33.424;-70.638;2023-02-01T05:38:16;10.00;;;2.28;;
34060;SDS011;20336;-33.424;-70.638;2023-02-01T05:40:43;8.40;;;2.35;;
34060;SDS011;20336;-33.424;-70.638;2023-02-01T05:43:14;9.82;;;2.20;;
34060;SDS011;20336;-33.424;-70.638;2023-02-01T05:45:41;6.95;;;2.05;;
34060;SDS011;20336;-33.424;-70.638;2023-02-01T05:48:08;6.38;;;2.33;;
34060;SDS011;20336;-33.424;-70.638;2023-02-01T05:50:35;7.38;;;2.17;;
34060;SDS011;20336;-33.424;-70.638;2023-02-01T05:53:03;5.53;;;2.00;;
34060;SDS011;20336;-33.424;-70.638;2023-02-01T05:55:29;10.18;;;2.28;;
34060;SDS011;20336;-33.424;-70.638;2023-02-01T05:57:56;9.32;;;2.38;;
34060;SDS011;20336;-33.424;-70.638;2023-02-01T06:00:23;8.10;;;2.38;;
34060;SDS011;20336;-33.424;-70.638;2023-02-01T06:02:50;8.00;;;2.00;;
34060;SDS011;20336;-33.424;-70.638;2023-02-01T06:05:17;6.50;;;2.13;;
34060;SDS011;20336;-33.424;-70.638;2023-02-01T06:07:44;6.38;;;2.20;;
34060;SDS011;20336;-33.424;-70.638;2023-02-01T06:10:11;12.07;;;2.45;;
34060;SDS011;20336;-33.424;-70.638;2023-02-01T06:12:38;8.60;;;2.97;;
34060;SDS011;20336;-33.424;-70.638;2023-02-01T06:15:05;5.82;;;2.17;;
34060;SDS011;20336;-33.424;-70.638;2023-02-01T06:17:33;6.72;;;2.10;;
34060;SDS011;20336;-33.424;-70.638;2023-02-01T06:20:00;8.13;;;2.42;;
34060;SDS011;20336;-33.424;-70.638;2023-02-01T06:22:26;8.52;;;2.47;;
34060;SDS011;20336;-33.424;-70.638;2023-02-01T06:24:53;7.93;;;2.47;;
34060;SDS011;20336;-33.424;-70.638;2023-02-01T06:27:20;7.40;;;3.03;;
34060;SDS011;20336;-33.424;-70.638;2023-02-01T06:29:47;6.47;;;2.55;;
34060;SDS011;20336;-33.424;-70.638;2023-02-01T06:32:14;10.07;;;2.70;;
34060;SDS011;20336;-33.424;-70.638;2023-02-01T06:34:42;6.80;;;2.72;;
34060;SDS011;20336;-33.424;-70.638;2023-02-01T06:37:09;9.05;;;2.70;;
34060;SDS011;20336;-33.424;-70.638;2023-02-01T06:39:36;8.77;;;2.40;;
34060;SDS011;20336;-33.424;-70.638;2023-02-01T06:42:04;6.75;;;2.40;;
34060;SDS011;20336;-33.424;-70.638;2023-02-01T06:44:30;7.50;;;2.80;;
34060;SDS011;20336;-33.424;-70.638;2023-02-01T06:46:57;6.18;;;2.35;;
34060;SDS011;20336;-33.424;-70.638;2023-02-01T06:49:24;6.47;;;2.40;;
34060;SDS011;20336;-33.424;-70.638;2023-02-01T06:51:51;8.68;;;2.80;;
34060;SDS011;20336;-33.424;-70.638;2023-02-01T06:54:18;6.60;;;2.60;;
34060;SDS011;20336;-33.424;-70.638;2023-02-01T06:56:44;7.95;;;2.53;;
34060;SDS011;20336;-33.424;-70.638;2023-02-01T06:59:11;5.97;;;2.35;;
34060;SDS011;20336;-33.424;-70.638;2023-02-01T07:01:38;10.18;;;2.60;;
34060;SDS011;20336;-33.424;-70.638;2023-02-01T07:04:05;5.88;;;2.15;;
34060;SDS011;20336;-33.424;-70.638;2023-02-01T07:06:32;13.40;;;3.10;;
34060;SDS011;20336;-33.424;-70.638;2023-02-01T07:08:59;7.05;;;2.75;;
34060;SDS011;20336;-33.424;-70.638;2023-02-01T07:11:26;6.70;;;2.67;;
34060;SDS011;20336;-33.424;-70.638;2023-02-01T07:13:53;7.40;;;3.15;;
34060;SDS011;20336;-33.424;-70.638;2023-02-01T07:16:20;11.80;;;3.10;;
34060;SDS011;20336;-33.424;-70.638;2023-02-01T07:18:47;8.10;;;2.85;;
34060;SDS011;20336;-33.424;-70.638;2023-02-01T07:21:16;6.97;;;2.55;;
34060;SDS011;20336;-33.424;-70.638;2023-02-01T07:23:44;9.85;;;3.33;;
34060;SDS011;20336;-33.424;-70.638;2023-02-01T07:26:12;7.57;;;2.70;;
34060;SDS011;20336;-33.424;-70.638;2023-02-01T07:28:40;6.03;;;2.83;;
34060;SDS011;20336;-33.424;-70.638;2023-02-01T07:31:09;9.82;;;2.65;;
34060;SDS011;20336;-33.424;-70.638;2023-02-01T07:33:38;8.57;;;3.00;;
34060;SDS011;20336;-33.424;-70.638;2023-02-01T07:36:06;11.23;;;3.30;;
34060;SDS011;20336;-33.424;-70.638;2023-02-01T07:38:36;7.85;;;2.70;;
34060;SDS011;20336;-33.424;-70.638;2023-02-01T07:41:03;10.68;;;2.70;;
34060;SDS011;20336;-33.424;-70.638;2023-02-01T07:43:31;8.15;;;2.72;;
34060;SDS011;20336;-33.424;-70.638;2023-02-01T07:45:58;10.38;;;2.60;;
34060;SDS011;20336;-33.424;-70.638;2023-02-01T07:48:26;8.93;;;2.97;;
34060;SDS011;20336;-33.424;-70.638;2023-02-01T07:51:03;7.03;;;2.70;;
34060;SDS011;20336;-33.424;-70.638;2023-02-01T07:53:38;5.50;;;2.58;;
34060;SDS011;20336;-33.424;-70.638;2023-02-01T07:56:10;10.13;;;3.30;;
34060;SDS011;20336;-33.424;-70.638;2023-02-01T07:58:38;10.57;;;3.65;;
34060;SDS011;20336;-33.424;-70.638;2023-02-01T08:01:05;9.88;;;2.85;;
34060;SDS011;20336;-33.424;-70.638;2023-02-01T08:04:04;7.78;;;2.67;;
34060;SDS011;20336;-33.424;-70.638;2023-02-01T08:06:31;5.75;;;2.60;;
34060;SDS011;20336;-33.424;-70.638;2023-02-01T08:09:02;11.00;;;3.10;;
34060;SDS011;20336;-33.424;-70.638;2023-02-01T08:11:30;7.38;;;3.08;;
34060;SDS011;20336;-33.424;-70.638;2023-02-01T08:13:57;14.75;;;3.83;;
34060;SDS011;20336;-33.424;-70.638;2023-02-01T08:16:24;9.60;;;3.33;;
34060;SDS011;20336;-33.424;-70.638;2023-02-01T08:18:52;10.35;;;2.88;;
34060;SDS011;20336;-33.424;-70.638;2023-02-01T08:21:20;12.88;;;3.30;;
34060;SDS011;20336;-33.424;-70.638;2023-02-01T08:23:49;9.18;;;3.20;;
34060;SDS011;20336;-33.424;-70.638;2023-02-01T08:26:20;8.40;;;2.95;;
34060;SDS011;20336;-33.424;-70.638;2023-02-01T08:28:50;9.73;;;3.08;;
34060;SDS011;20336;-33.424;-70.638;2023-02-01T08:31:22;10.15;;;3.25;;
34060;SDS011;20336;-33.424;-70.638;2023-02-01T08:33:52;7.97;;;2.90;;
34060;SDS011;20336;-33.424;-70.638;2023-02-01T08:36:21;11.77;;;3.40;;
34060;SDS011;20336;-33.424;-70.638;2023-02-01T08:38:52;9.52;;;3.30;;
34060;SDS011;20336;-33.424;-70.638;2023-02-01T08:41:26;6.72;;;3.00;;
34060;SDS011;20336;-33.424;-70.638;2023-02-01T08:43:55;7.90;;;3.22;;
34060;SDS011;20336;-33.424;-70.638;2023-02-01T08:46:22;13.13;;;3.90;;
34060;SDS011;20336;-33.424;-70.638;2023-02-01T08:48:49;7.38;;;3.20;;
34060;SDS011;20336;-33.424;-70.638;2023-02-01T08:51:18;8.82;;;3.22;;
34060;SDS011;20336;-33.424;-70.638;2023-02-01T08:53:46;6.70;;;3.28;;
34060;SDS011;20336;-33.424;-70.638;2023-02-01T08:56:15;11.32;;;3.38;;
34060;SDS011;20336;-33.424;-70.638;2023-02-01T08:58:42;9.93;;;3.80;;
34060;SDS011;20336;-33.424;-70.638;2023-02-01T09:01:10;14.02;;;3.58;;
34060;SDS011;20336;-33.424;-70.638;2023-02-01T09:03:42;48.10;;;5.95;;
34060;SDS011;20336;-33.424;-70.638;2023-02-01T09:06:10;29.92;;;5.35;;
34060;SDS011;20336;-33.424;-70.638;2023-02-01T09:08:39;27.58;;;5.80;;
34060;SDS011;20336;-33.424;-70.638;2023-02-01T09:11:07;58.88;;;8.43;;
34060;SDS011;20336;-33.424;-70.638;2023-02-01T09:13:39;25.17;;;6.68;;
34060;SDS011;20336;-33.424;-70.638;2023-02-01T09:16:07;21.67;;;5.57;;
34060;SDS011;20336;-33.424;-70.638;2023-02-01T09:18:34;16.00;;;5.90;;
34060;SDS011;20336;-33.424;-70.638;2023-02-01T09:21:07;15.00;;;5.13;;
34060;SDS011;20336;-33.424;-70.638;2023-02-01T09:23:34;16.50;;;6.00;;
34060;SDS011;20336;-33.424;-70.638;2023-02-01T09:26:02;15.00;;;6.32;;
34060;SDS011;20336;-33.424;-70.638;2023-02-01T09:28:30;18.75;;;6.03;;
34060;SDS011;20336;-33.424;-70.638;2023-02-01T09:30:57;19.13;;;6.80;;
34060;SDS011;20336;-33.424;-70.638;2023-02-01T09:33:26;26.27;;;6.50;;
34060;SDS011;20336;-33.424;-70.638;2023-02-01T09:35:57;15.80;;;6.20;;
34060;SDS011;20336;-33.424;-70.638;2023-02-01T09:38:25;19.67;;;5.72;;
34060;SDS011;20336;-33.424;-70.638;2023-02-01T09:40:53;14.48;;;5.32;;
34060;SDS011;20336;-33.424;-70.638;2023-02-01T09:43:27;13.48;;;5.38;;
34060;SDS011;20336;-33.424;-70.638;2023-02-01T09:46:23;15.30;;;5.25;;
34060;SDS011;20336;-33.424;-70.638;2023-02-01T09:48:56;16.75;;;5.10;;
34060;SDS011;20336;-33.424;-70.638;2023-02-01T09:51:38;13.32;;;5.00;;
34060;SDS011;20336;-33.424;-70.638;2023-02-01T09:56:49;12.93;;;5.00;;
34060;SDS011;20336;-33.424;-70.638;2023-02-01T10:02:19;93.60;;;9.63;;
34060;SDS011;20336;-33.424;-70.638;2023-02-01T10:04:48;76.00;;;9.00;;
34060;SDS011;20336;-33.424;-70.638;2023-02-01T10:15:52;12.98;;;4.82;;
34060;SDS011;20336;-33.424;-70.638;2023-02-01T10:26:51;12.80;;;4.28;;
34060;SDS011;20336;-33.424;-70.638;2023-02-01T10:29:30;11.95;;;4.45;;
34060;SDS011;20336;-33.424;-70.638;2023-02-01T10:32:08;12.57;;;4.75;;
34060;SDS011;20336;-33.424;-70.638;2023-02-01T10:34:46;13.95;;;4.90;;
34060;SDS011;20336;-33.424;-70.638;2023-02-01T10:37:23;11.57;;;4.60;;
34060;SDS011;20336;-33.424;-70.638;2023-02-01T10:39:56;12.48;;;5.15;;
34060;SDS011;20336;-33.424;-70.638;2023-02-01T10:42:27;17.90;;;5.30;;
34060;SDS011;20336;-33.424;-70.638;2023-02-01T10:44:58;10.15;;;4.53;;
34060;SDS011;20336;-33.424;-70.638;2023-02-01T10:47:27;13.77;;;4.50;;
34060;SDS011;20336;-33.424;-70.638;2023-02-01T10:49:57;17.48;;;4.78;;
34060;SDS011;20336;-33.424;-70.638;2023-02-01T10:52:33;11.50;;;4.72;;
34060;SDS011;20336;-33.424;-70.638;2023-02-01T10:57:56;12.90;;;4.90;;
34060;SDS011;20336;-33.424;-70.638;2023-02-01T11:00:24;21.65;;;5.13;;
34060;SDS011;20336;-33.424;-70.638;2023-02-01T11:02:53;14.85;;;5.63;;
34060;SDS011;20336;-33.424;-70.638;2023-02-01T11:05:21;15.10;;;5.50;;
34060;SDS011;20336;-33.424;-70.638;2023-02-01T11:07:49;20.83;;;6.40;;
34060;SDS011;20336;-33.424;-70.638;2023-02-01T11:10:36;22.70;;;6.00;;
34060;SDS011;20336;-33.424;-70.638;2023-02-01T11:13:11;21.77;;;5.97;;
34060;SDS011;20336;-33.424;-70.638;2023-02-01T11:15:44;15.15;;;5.72;;
34060;SDS011;20336;-33.424;-70.638;2023-02-01T11:18:15;15.25;;;5.72;;
34060;SDS011;20336;-33.424;-70.638;2023-02-01T11:20:44;18.10;;;5.95;;
34060;SDS011;20336;-33.424;-70.638;2023-02-01T11:23:21;19.75;;;5.80;;
34060;SDS011;20336;-33.424;-70.638;2023-02-01T11:26:00;14.75;;;5.93;;
34060;SDS011;20336;-33.424;-70.638;2023-02-01T11:28:35;16.73;;;5.63;;
34060;SDS011;20336;-33.424;-70.638;2023-02-01T11:31:10;15.13;;;5.82;;
34060;SDS011;20336;-33.424;-70.638;2023-02-01T11:33:44;20.40;;;6.60;;
34060;SDS011;20336;-33.424;-70.638;2023-02-01T11:36:15;15.00;;;5.70;;
34060;SDS011;20336;-33.424;-70.638;2023-02-01T11:38:52;17.83;;;5.65;;
34060;SDS011;20336;-33.424;-70.638;2023-02-01T11:41:22;16.42;;;5.85;;
34060;SDS011;20336;-33.424;-70.638;2023-02-01T11:43:52;18.95;;;6.50;;
34060;SDS011;20336;-33.424;-70.638;2023-02-01T11:46:31;16.58;;;5.80;;
34060;SDS011;20336;-33.424;-70.638;2023-02-01T11:49:33;16.00;;;5.03;;
34060;SDS011;20336;-33.424;-70.638;2023-02-01T11:51:56;20.27;;;5.30;;
34060;SDS011;20336;-33.424;-70.638;2023-02-01T12:22:29;25.52;;;8.15;;
34060;SDS011;20336;-33.424;-70.638;2023-02-01T12:30:46;28.52;;;7.85;;
34060;SDS011;20336;-33.424;-70.638;2023-02-01T12:37:05;20.02;;;7.63;;
34060;SDS011;20336;-33.424;-70.638;2023-02-01T12:41:57;31.98;;;8.38;;
34060;SDS011;20336;-33.424;-70.638;2023-02-01T12:47:25;22.58;;;8.13;;
34060;SDS011;20336;-33.424;-70.638;2023-02-01T12:52:39;17.60;;;6.00;;
34060;SDS011;20336;-33.424;-70.638;2023-02-01T13:01:28;23.40;;;8.82;;
34060;SDS011;20336;-33.424;-70.638;2023-02-01T13:06:49;24.27;;;7.70;;
34060;SDS011;20336;-33.424;-70.638;2023-02-01T13:09:29;18.00;;;7.95;;
34060;SDS011;20336;-33.424;-70.638;2023-02-01T13:12:03;20.77;;;8.90;;
34060;SDS011;20336;-33.424;-70.638;2023-02-01T13:14:54;29.65;;;8.70;;
34060;SDS011;20336;-33.424;-70.638;2023-02-01T13:17:29;34.55;;;9.02;;
34060;SDS011;20336;-33.424;-70.638;2023-02-01T13:20:16;19.40;;;9.77;;
34060;SDS011;20336;-33.424;-70.638;2023-02-01T13:25:47;23.30;;;9.27;;
34060;SDS011;20336;-33.424;-70.638;2023-02-01T13:42:54;29.75;;;10.23;;
34060;SDS011;20336;-33.424;-70.638;2023-02-01T13:45:34;24.90;;;10.02;;
34060;SDS011;20336;-33.424;-70.638;2023-02-01T13:48:17;30.67;;;11.27;;
34060;SDS011;20336;-33.424;-70.638;2023-02-01T13:50:51;24.23;;;9.93;;
34060;SDS011;20336;-33.424;-70.638;2023-02-01T13:53:26;23.30;;;9.93;;
34060;SDS011;20336;-33.424;-70.638;2023-02-01T13:58:36;25.70;;;10.40;;
34060;SDS011;20336;-33.424;-70.638;2023-02-01T14:03:59;23.65;;;9.45;;
34060;SDS011;20336;-33.424;-70.638;2023-02-01T14:11:53;31.23;;;10.80;;
34060;SDS011;20336;-33.424;-70.638;2023-02-01T14:19:22;27.50;;;7.78;;
34060;SDS011;20336;-33.424;-70.638;2023-02-01T14:21:57;24.02;;;7.22;;
34060;SDS011;20336;-33.424;-70.638;2023-02-01T14:24:33;18.33;;;6.32;;
34060;SDS011;20336;-33.424;-70.638;2023-02-01T14:27:23;24.17;;;7.22;;
34060;SDS011;20336;-33.424;-70.638;2023-02-01T14:29:51;19.17;;;6.57;;
34060;SDS011;20336;-33.424;-70.638;2023-02-01T14:32:33;20.30;;;7.03;;
34060;SDS011;20336;-33.424;-70.638;2023-02-01T14:35:01;23.77;;;6.38;;
34060;SDS011;20336;-33.424;-70.638;2023-02-01T14:37:37;24.33;;;6.97;;
34060;SDS011;20336;-33.424;-70.638;2023-02-01T14:40:06;24.58;;;6.70;;
34060;SDS011;20336;-33.424;-70.638;2023-02-01T14:47:53;25.98;;;6.63;;
34060;SDS011;20336;-33.424;-70.638;2023-02-01T14:58:04;20.30;;;5.90;;
34060;SDS011;20336;-33.424;-70.638;2023-02-01T15:00:32;29.23;;;6.75;;
34060;SDS011;20336;-33.424;-70.638;2023-02-01T15:03:16;24.85;;;6.72;;
34060;SDS011;20336;-33.424;-70.638;2023-02-01T15:05:50;20.25;;;5.95;;
34060;SDS011;20336;-33.424;-70.638;2023-02-01T15:08:24;19.98;;;6.47;;
34060;SDS011;20336;-33.424;-70.638;2023-02-01T15:10:52;21.27;;;5.68;;
34060;SDS011;20336;-33.424;-70.638;2023-02-01T15:13:23;22.77;;;6.68;;
34060;SDS011;20336;-33.424;-70.638;2023-02-01T15:18:30;20.33;;;5.70;;
34060;SDS011;20336;-33.424;-70.638;2023-02-01T15:20:58;19.38;;;6.28;;
34060;SDS011;20336;-33.424;-70.638;2023-02-01T15:23:25;17.58;;;6.03;;
34060;SDS011;20336;-33.424;-70.638;2023-02-01T15:25:53;15.82;;;5.60;;
34060;SDS011;20336;-33.424;-70.638;2023-02-01T15:28:20;20.45;;;5.68;;
34060;SDS011;20336;-33.424;-70.638;2023-02-01T15:31:01;18.40;;;5.68;;
34060;SDS011;20336;-33.424;-70.638;2023-02-01T15:33:29;16.90;;;5.47;;
34060;SDS011;20336;-33.424;-70.638;2023-02-01T15:36:07;20.48;;;5.72;;
34060;SDS011;20336;-33.424;-70.638;2023-02-01T15:38:43;15.75;;;5.68;;
34060;SDS011;20336;-33.424;-70.638;2023-02-01T15:41:11;22.92;;;5.82;;
34060;SDS011;20336;-33.424;-70.638;2023-02-01T15:49:24;23.17;;;6.18;;
34060;SDS011;20336;-33.424;-70.638;2023-02-01T15:51:52;20.23;;;5.15;;
34060;SDS011;20336;-33.424;-70.638;2023-02-01T15:54:25;16.48;;;5.93;;
34060;SDS011;20336;-33.424;-70.638;2023-02-01T15:57:18;19.10;;;5.10;;
34060;SDS011;20336;-33.424;-70.638;2023-02-01T16:00:04;13.63;;;4.75;;
34060;SDS011;20336;-33.424;-70.638;2023-02-01T16:02:35;14.13;;;4.22;;
34060;SDS011;20336;-33.424;-70.638;2023-02-01T16:08:15;19.20;;;4.80;;
34060;SDS011;20336;-33.424;-70.638;2023-02-01T16:10:48;17.63;;;4.75;;
34060;SDS011;20336;-33.424;-70.638;2023-02-01T16:13:17;17.48;;;4.45;;
34060;SDS011;20336;-33.424;-70.638;2023-02-01T16:15:46;17.20;;;4.22;;
34060;SDS011;20336;-33.424;-70.638;2023-02-01T16:18:14;16.45;;;4.40;;
34060;SDS011;20336;-33.424;-70.638;2023-02-01T16:20:41;15.77;;;4.07;;
34060;SDS011;20336;-33.424;-70.638;2023-02-01T16:23:09;18.25;;;4.38;;
34060;SDS011;20336;-33.424;-70.638;2023-02-01T16:25:36;14.95;;;3.78;;
34060;SDS011;20336;-33.424;-70.638;2023-02-01T16:28:04;24.35;;;4.60;;
34060;SDS011;20336;-33.424;-70.638;2023-02-01T16:30:31;14.88;;;4.95;;
34060;SDS011;20336;-33.424;-70.638;2023-02-01T16:32:59;13.30;;;4.47;;
34060;SDS011;20336;-33.424;-70.638;2023-02-01T16:35:34;21.85;;;5.43;;
34060;SDS011;20336;-33.424;-70.638;2023-02-01T16:38:03;19.77;;;5.40;;
34060;SDS011;20336;-33.424;-70.638;2023-02-01T16:40:34;16.92;;;4.47;;
34060;SDS011;20336;-33.424;-70.638;2023-02-01T16:43:02;19.98;;;4.38;;
34060;SDS011;20336;-33.424;-70.638;2023-02-01T16:45:34;13.10;;;4.45;;
34060;SDS011;20336;-33.424;-70.638;2023-02-01T16:48:02;13.02;;;4.65;;
34060;SDS011;20336;-33.424;-70.638;2023-02-01T16:50:31;17.45;;;4.90;;
34060;SDS011;20336;-33.424;-70.638;2023-02-01T16:52:59;16.35;;;4.53;;
34060;SDS011;20336;-33.424;-70.638;2023-02-01T16:55:28;11.48;;;4.25;;
34060;SDS011;20336;-33.424;-70.638;2023-02-01T16:57:55;13.38;;;4.18;;
34060;SDS011;20336;-33.424;-70.638;2023-02-01T17:00:21;13.95;;;4.25;;
34060;SDS011;20336;-33.424;-70.638;2023-02-01T17:02:50;20.30;;;4.30;;
34060;SDS011;20336;-33.424;-70.638;2023-02-01T17:05:18;13.60;;;4.07;;
34060;SDS011;20336;-33.424;-70.638;2023-02-01T17:07:45;13.30;;;4.00;;
34060;SDS011;20336;-33.424;-70.638;2023-02-01T17:10:33;17.05;;;4.18;;
34060;SDS011;20336;-33.424;-70.638;2023-02-01T17:12:59;14.85;;;4.07;;